North Buena Vista, Iowa
Current Conditions -  °F | °C
As of 11:53 AM on Thursday 30 Oct 2014 (Local Time) from KDBQ Reporting Station
Overcast Overcast  
Wind Chill: 42°   Ceiling: 9500
Heat Index: 46°   Visibility: 10mi
Dew Point: 37°   Wind: 8mph
Humidity: 71%   Direction: 190°S
Pressure: 30.08"   Gusts: NA
Location:  42.68°N, 90.96°W
Report Text: KDBQ 301653Z 19007KT 10SM SCT065 OVC095 08/03 A3008 RMK AO2 SLP197 T00780028
Loading
Personal Weather Stations






























Interactive Weather Map
Tropical Storm Tracking
New forecast layout! Learn more

10-Day Weather Forecast

Advertisements
Track Severe Weather on mobile